Portada
METAR-TAF:

METAR-TAF

Aeroports :

Key West, Florida, Estats Units d'Amèrica

latitud: 24-33-13N, longitud: 081-45-13W, altitud: 1 m

Observació

L'informe es va fer fa 10 minuts, a les 17:53 UTC
Vent 7 kt del Sud-Est
Temperatura 32°C
Humitat 71%
Pressió 1018 hPa
Visibilitat: 16.1 km
Cel clar

METAR: KEYW 181753Z AUTO 13007KT 10SM CLR 32/26 A3006 RMK AO2 SLP184 60000 T03220256 10322 20272 58001 $

Hora: 14:03 (18:03 UTC)

Pronòstic

L'informe es va fer fa 37 minuts, a les 17:26 UTC
Pronòstic vàlid del 18 a les 18 UTC al 19 a les 18 UTC
Vent 10 kt del Sud-Est
Visibilitat: 10 km
Escasses núvols a una alçada de 2500 ft

TAF: KEYW 181726Z 1818/1918 13010KT P6SM FEW025

Observacions i pronòstics meteorològics de més de 4000 aeroports (METAR i TAF).

Les estacions disponibles són els punts grocs i vermells al mapa.

Posi el ratolí al punt desitjat per veure el nom de l'estació.

Feu clic per veure les observacions i els pronòstics meteorològics.

Per canviar el mapa: feu clic els botons verds amb una creu de color negre per apropar; al botó verd amb un guió per allunyar la imatge; o en les fletxes verdes per a mapes adjacents.


METAR-TAF: